createdAt,value
2022-08-11T00:02:28.677Z,37.68
2022-08-11T00:04:57.284Z,37.74
2022-08-11T00:07:25.743Z,37.33
2022-08-11T00:09:53.847Z,37.17
2022-08-11T00:12:21.626Z,37.36
2022-08-11T00:14:58.213Z,37.33
2022-08-11T00:17:33.250Z,38.35
2022-08-11T00:20:13.392Z,38.64
2022-08-11T00:22:45.322Z,38.22
2022-08-11T00:25:15.332Z,38.49
2022-08-11T00:27:44.909Z,38.37
2022-08-11T00:30:13.802Z,38.84
2022-08-11T00:32:44.218Z,38.69
2022-08-11T00:35:55.472Z,39.05
2022-08-11T00:38:03.446Z,38.83
2022-08-11T00:40:43.053Z,39.61
2022-08-11T00:43:52.754Z,39.81
2022-08-11T00:46:26.503Z,39.74
2022-08-11T00:49:08.610Z,40.41
2022-08-11T00:52:13.840Z,40.03
2022-08-11T00:55:17.434Z,40.56
2022-08-11T00:58:07.266Z,40.66
2022-08-11T01:00:56.164Z,40.22
2022-08-11T01:03:58.777Z,40.33
2022-08-11T01:06:51.212Z,38.78
2022-08-11T01:10:07.323Z,38.97
2022-08-11T01:12:42.164Z,38.16
2022-08-11T01:15:55.823Z,37.82
2022-08-11T01:18:40.167Z,37.73
2022-08-11T01:21:50.182Z,37.36
2022-08-11T01:24:37.870Z,37.17
2022-08-11T01:27:25.534Z,37.08
2022-08-11T01:30:15.808Z,36.64
2022-08-11T01:32:57.752Z,36.70
2022-08-11T01:35:48.380Z,36.97
2022-08-11T01:38:42.196Z,36.65
2022-08-11T01:41:49.510Z,36.47
2022-08-11T01:45:03.773Z,36.75
2022-08-11T01:47:54.155Z,36.95
2022-08-11T01:50:58.065Z,37.05
2022-08-11T01:53:32.069Z,36.79
2022-08-11T01:56:24.201Z,36.71
2022-08-11T01:59:21.637Z,36.35
2022-08-11T02:01:59.786Z,36.47
2022-08-11T02:04:53.473Z,36.42
2022-08-11T02:07:34.073Z,36.16
2022-08-11T02:10:38.607Z,36.38
2022-08-11T02:13:43.423Z,36.30
2022-08-11T02:16:36.769Z,36.02
2022-08-11T02:19:35.820Z,36.37
2022-08-11T02:22:36.657Z,36.48
2022-08-11T02:25:10.440Z,36.07
2022-08-11T02:27:46.611Z,36.21
2022-08-11T02:30:17.939Z,36.51
2022-08-11T02:33:25.256Z,36.62
2022-08-11T02:36:22.176Z,36.03
2022-08-11T02:39:07.584Z,36.56
2022-08-11T02:41:54.741Z,36.41
2022-08-11T02:44:52.217Z,36.40
2022-08-11T02:47:43.287Z,36.26
2022-08-11T02:50:22.078Z,36.27
2022-08-11T02:53:10.866Z,36.26
2022-08-11T02:55:56.545Z,35.89
2022-08-11T02:59:12.216Z,36.72
2022-08-11T03:01:55.160Z,36.61
2022-08-11T03:05:10.760Z,37.01
2022-08-11T03:08:01.231Z,38.72
2022-08-11T03:11:12.460Z,39.23
2022-08-11T03:14:28.346Z,38.78
2022-08-11T03:17:00.960Z,38.77
2022-08-11T03:19:37.417Z,38.64
2022-08-11T03:22:30.629Z,38.76
2022-08-11T03:24:59.106Z,38.07
2022-08-11T03:28:04.793Z,39.71
2022-08-11T03:30:43.967Z,38.20
2022-08-11T03:34:00.446Z,39.16
2022-08-11T03:37:14.955Z,37.74
2022-08-11T03:40:00.425Z,37.90
2022-08-11T03:42:30.301Z,37.41
2022-08-11T03:45:25.288Z,37.30
2022-08-11T03:48:01.968Z,38.52
2022-08-11T03:50:36.589Z,37.64
2022-08-11T03:53:13.920Z,37.50
2022-08-11T03:55:53.639Z,37.28
2022-08-11T03:58:41.890Z,37.47
2022-08-11T04:01:34.002Z,37.39
2022-08-11T04:04:29.456Z,37.06
2022-08-11T04:07:37.418Z,36.99
2022-08-11T04:10:11.108Z,36.91
2022-08-11T04:12:57.406Z,37.12
2022-08-11T04:16:11.531Z,37.38
2022-08-11T04:19:13.337Z,37.81
2022-08-11T04:22:07.268Z,37.58
2022-08-11T04:24:50.261Z,39.56
2022-08-11T04:27:45.436Z,39.89
2022-08-11T04:30:28.455Z,39.33
2022-08-11T04:33:35.230Z,38.30
2022-08-11T04:36:41.881Z,38.51
2022-08-11T04:39:20.293Z,39.29
2022-08-11T04:42:31.418Z,39.39
2022-08-11T04:45:28.871Z,39.78
2022-08-11T04:48:38.152Z,40.78
2022-08-11T04:51:58.752Z,40.77
2022-08-11T04:55:06.933Z,40.54
2022-08-11T04:58:08.202Z,39.98
2022-08-11T05:01:14.610Z,40.23
2022-08-11T05:04:31.875Z,39.58
2022-08-11T05:07:34.456Z,39.11
2022-08-11T05:10:11.359Z,39.18
2022-08-11T05:12:50.746Z,38.92
2022-08-11T05:15:44.649Z,39.37
2022-08-11T05:18:36.109Z,38.09
2022-08-11T05:21:27.025Z,39.04
2022-08-11T05:24:17.277Z,38.57
2022-08-11T05:27:11.296Z,39.69
2022-08-11T05:29:59.650Z,37.91
2022-08-11T05:32:52.639Z,37.25
2022-08-11T05:36:01.722Z,37.28
2022-08-11T05:38:43.199Z,36.29
2022-08-11T05:41:33.357Z,36.67
2022-08-11T05:44:22.502Z,36.50
2022-08-11T05:47:09.436Z,35.83
2022-08-11T05:49:57.888Z,36.55
2022-08-11T05:52:49.266Z,36.37
2022-08-11T05:56:01.789Z,36.33
2022-08-11T05:58:41.171Z,35.23
2022-08-11T06:01:14.702Z,34.87
2022-08-11T06:04:03.608Z,34.97
2022-08-11T06:06:31.196Z,34.98
2022-08-11T06:08:59.581Z,34.99
2022-08-11T06:11:43.226Z,35.00
2022-08-11T06:14:13.259Z,34.90
2022-08-11T06:16:42.217Z,34.80
2022-08-11T06:19:10.336Z,34.59
2022-08-11T06:21:38.672Z,34.33
2022-08-11T06:24:17.263Z,34.09
2022-08-11T06:27:11.183Z,34.22
2022-08-11T06:29:47.962Z,33.77
2022-08-11T06:32:33.379Z,33.54
2022-08-11T06:35:22.903Z,33.63
2022-08-11T06:38:11.073Z,33.86
2022-08-11T06:41:17.036Z,32.28
2022-08-11T06:43:56.061Z,33.57
2022-08-11T06:46:38.879Z,33.23
2022-08-11T06:49:28.317Z,32.80
2022-08-11T06:52:01.832Z,32.70
2022-08-11T06:54:35.927Z,32.56
2022-08-11T06:57:30.894Z,32.83
2022-08-11T07:00:18.504Z,33.19
2022-08-11T07:02:51.827Z,31.96
2022-08-11T07:05:48.622Z,31.56
2022-08-11T07:09:02.932Z,31.56
2022-08-11T07:12:34.269Z,31.25
2022-08-11T07:15:22.444Z,31.32
2022-08-11T07:18:12.399Z,29.93
2022-08-11T07:21:02.190Z,29.81
2022-08-11T07:23:51.051Z,30.24
2022-08-11T07:26:38.800Z,29.67
2022-08-11T07:29:07.510Z,30.89
2022-08-11T07:31:46.992Z,30.67
2022-08-11T07:34:20.815Z,30.43
2022-08-11T07:37:16.310Z,30.00
2022-08-11T07:39:45.293Z,30.29
2022-08-11T07:42:17.008Z,30.12
2022-08-11T07:45:06.492Z,30.14
2022-08-11T07:47:54.103Z,30.54
2022-08-11T07:50:41.160Z,29.80
2022-08-11T07:53:08.977Z,29.55
2022-08-11T07:55:48.880Z,29.55
2022-08-11T07:58:45.234Z,29.44
2022-08-11T08:01:40.773Z,29.11
2022-08-11T08:04:29.113Z,29.22
2022-08-11T08:07:17.023Z,30.17
2022-08-11T08:10:04.097Z,29.54
2022-08-11T08:12:50.723Z,28.55
2022-08-11T08:15:39.094Z,28.79
2022-08-11T08:18:26.183Z,28.15
2022-08-11T08:20:57.426Z,28.50
2022-08-11T08:23:35.854Z,28.00
2022-08-11T08:26:13.604Z,28.63
2022-08-11T08:28:46.691Z,28.50
2022-08-11T08:31:14.922Z,28.19
2022-08-11T08:33:43.073Z,28.21
2022-08-11T08:36:15.493Z,28.86
2022-08-11T08:38:48.400Z,27.95
2022-08-11T08:41:20.397Z,28.40
2022-08-11T08:43:51.144Z,28.99
2022-08-11T08:46:24.049Z,29.27
2022-08-11T08:48:53.285Z,28.89
2022-08-11T08:52:01.151Z,30.14
2022-08-11T08:54:29.776Z,29.12
2022-08-11T08:56:57.592Z,29.39
2022-08-11T08:59:26.932Z,28.25
2022-08-11T09:02:14.667Z,28.67
2022-08-11T09:04:45.055Z,28.25
2022-08-11T09:07:16.475Z,27.77
2022-08-11T09:09:50.605Z,28.40
2022-08-11T09:12:36.484Z,28.67
2022-08-11T09:15:09.246Z,28.73
2022-08-11T09:17:50.670Z,29.52
2022-08-11T09:20:29.373Z,29.33
2022-08-11T09:24:06.836Z,29.05
2022-08-11T09:26:30.916Z,28.13
2022-08-11T09:28:59.883Z,28.83
2022-08-11T09:31:34.615Z,28.99
2022-08-11T09:34:04.813Z,27.65
2022-08-11T09:36:51.808Z,29.11
2022-08-11T09:39:37.974Z,28.45
2022-08-11T09:42:06.164Z,28.13
2022-08-11T09:44:48.874Z,28.06
2022-08-11T09:47:29.066Z,28.38
2022-08-11T09:50:02.514Z,28.23
2022-08-11T09:52:52.231Z,27.11
2022-08-11T09:55:27.939Z,27.20
2022-08-11T09:58:35.145Z,26.08
2022-08-11T10:01:04.146Z,26.24
2022-08-11T10:03:33.193Z,25.16
2022-08-11T10:06:20.820Z,24.82
2022-08-11T10:09:05.332Z,26.00
2022-08-11T10:11:35.166Z,25.02
2022-08-11T10:14:34.042Z,24.06
2022-08-11T10:17:07.932Z,22.46
2022-08-11T10:19:40.223Z,24.32
2022-08-11T10:22:27.795Z,22.44
2022-08-11T10:25:15.173Z,24.35
2022-08-11T10:28:32.810Z,24.59
2022-08-11T10:31:04.975Z,25.35
2022-08-11T10:33:59.336Z,25.58
2022-08-11T10:36:29.533Z,24.22
2022-08-11T10:38:58.347Z,24.57
2022-08-11T10:42:03.481Z,25.30
2022-08-11T10:44:38.202Z,25.25
2022-08-11T10:47:25.334Z,24.69
2022-08-11T10:50:13.502Z,23.24
2022-08-11T10:53:05.866Z,23.84
2022-08-11T10:55:55.314Z,23.96
2022-08-11T10:58:45.506Z,23.71
2022-08-11T11:01:15.868Z,23.52
2022-08-11T11:03:44.107Z,22.91
2022-08-11T11:06:45.823Z,24.14
2022-08-11T11:09:13.439Z,23.06
2022-08-11T11:12:05.752Z,23.41
2022-08-11T11:14:58.286Z,23.25
2022-08-11T11:17:51.243Z,23.24
2022-08-11T11:20:46.684Z,23.00
2022-08-11T11:23:41.714Z,23.24
2022-08-11T11:26:53.032Z,22.18
2022-08-11T11:29:39.294Z,21.93
2022-08-11T11:32:15.527Z,22.11
2022-08-11T11:35:12.072Z,18.92
2022-08-11T11:37:40.953Z,19.70
2022-08-11T11:40:31.488Z,20.18
2022-08-11T11:43:00.371Z,19.67
2022-08-11T11:45:28.057Z,19.42
2022-08-11T11:47:56.477Z,19.85
2022-08-11T11:50:26.295Z,19.32
2022-08-11T11:53:01.537Z,19.46
2022-08-11T11:55:29.779Z,20.40
2022-08-11T11:58:18.698Z,20.32
2022-08-11T12:01:06.431Z,20.10
2022-08-11T12:03:35.426Z,19.61
2022-08-11T12:06:03.971Z,19.69
2022-08-11T12:08:31.821Z,19.02
2022-08-11T12:11:22.832Z,19.99
2022-08-11T12:13:52.371Z,19.98
2022-08-11T12:16:33.722Z,20.19
2022-08-11T12:19:11.853Z,20.15
2022-08-11T12:22:04.248Z,20.49
2022-08-11T12:24:52.078Z,20.12
2022-08-11T12:27:20.619Z,20.34
2022-08-11T12:29:57.061Z,19.59
2022-08-11T12:32:28.200Z,19.16
2022-08-11T12:34:57.339Z,20.23
2022-08-11T12:37:31.470Z,20.58
2022-08-11T12:40:43.100Z,20.80
2022-08-11T12:43:37.303Z,20.81
2022-08-11T12:46:14.438Z,20.34
2022-08-11T12:49:23.339Z,19.67
2022-08-11T12:52:13.201Z,20.12
2022-08-11T12:54:52.331Z,21.69
2022-08-11T12:57:56.563Z,21.05
2022-08-11T13:00:44.070Z,20.76
2022-08-11T13:03:30.677Z,21.28
2022-08-11T13:06:01.832Z,21.14
2022-08-11T13:08:35.959Z,20.56
2022-08-11T13:11:23.387Z,20.70
2022-08-11T13:13:57.194Z,20.92
2022-08-11T13:16:53.141Z,20.59
2022-08-11T13:19:21.420Z,19.87
2022-08-11T13:21:53.668Z,19.73
2022-08-11T13:24:21.980Z,19.27
2022-08-11T13:26:50.633Z,19.94
2022-08-11T13:29:23.537Z,20.15
2022-08-11T13:31:52.863Z,20.18
2022-08-11T13:34:21.129Z,19.54
2022-08-11T13:36:54.682Z,20.27
2022-08-11T13:39:25.931Z,20.65
2022-08-11T13:41:57.684Z,20.53
2022-08-11T13:44:30.252Z,20.42
2022-08-11T13:47:01.352Z,20.77
2022-08-11T13:49:31.503Z,21.03
2022-08-11T13:51:59.473Z,21.50
2022-08-11T13:54:30.377Z,22.26
2022-08-11T13:57:03.997Z,22.40
2022-08-11T13:59:45.323Z,22.66
2022-08-11T14:02:30.774Z,22.63
2022-08-11T14:05:04.227Z,22.99
2022-08-11T14:07:39.551Z,22.76
2022-08-11T14:10:08.925Z,23.13
2022-08-11T14:13:01.710Z,23.98
2022-08-11T14:15:33.711Z,23.68
2022-08-11T14:18:07.587Z,23.17
2022-08-11T14:20:57.717Z,23.21
2022-08-11T14:23:34.886Z,22.85
2022-08-11T14:26:21.611Z,23.04
2022-08-11T14:28:50.297Z,23.91
2022-08-11T14:31:18.465Z,23.53
2022-08-11T14:34:00.684Z,23.85
2022-08-11T14:36:34.126Z,23.78
2022-08-11T14:39:04.766Z,24.33
2022-08-11T14:42:12.666Z,24.57
2022-08-11T14:45:01.146Z,23.81
2022-08-11T14:47:33.890Z,23.36
2022-08-11T14:50:10.867Z,24.02
2022-08-11T14:52:48.844Z,23.78
2022-08-11T14:55:36.395Z,24.01
2022-08-11T14:58:05.321Z,23.33
2022-08-11T15:00:34.517Z,24.02
2022-08-11T15:03:10.477Z,24.64
2022-08-11T15:05:41.760Z,24.52
2022-08-11T15:08:46.460Z,23.58
2022-08-11T15:11:34.731Z,23.61
2022-08-11T15:14:04.326Z,23.94
2022-08-11T15:16:51.213Z,24.26
2022-08-11T15:19:23.526Z,23.47
2022-08-11T15:22:09.976Z,23.91
2022-08-11T15:24:37.755Z,23.90
2022-08-11T15:27:32.916Z,22.78
2022-08-11T15:30:33.673Z,22.90
2022-08-11T15:33:23.838Z,22.93
2022-08-11T15:36:11.602Z,23.51
2022-08-11T15:38:55.261Z,23.77
2022-08-11T15:41:54.387Z,22.30
2022-08-11T15:45:06.265Z,22.67
2022-08-11T15:47:41.693Z,23.39
2022-08-11T15:50:16.789Z,22.62
2022-08-11T15:52:54.250Z,22.51
2022-08-11T15:55:23.790Z,22.33
2022-08-11T15:58:12.486Z,23.30
2022-08-11T16:01:04.170Z,22.63
2022-08-11T16:04:07.965Z,22.37
2022-08-11T16:06:49.612Z,22.43
2022-08-11T16:09:48.050Z,22.28
2022-08-11T16:12:23.036Z,21.88
2022-08-11T16:15:14.815Z,22.76
2022-08-11T16:17:57.944Z,22.39
2022-08-11T16:20:28.259Z,22.38
2022-08-11T16:23:03.530Z,21.69
2022-08-11T16:27:01.507Z,22.17
2022-08-11T16:28:23.529Z,21.97
2022-08-11T16:30:52.183Z,22.63
2022-08-11T16:33:48.393Z,22.64
2022-08-11T16:36:28.914Z,22.90
2022-08-11T16:38:57.224Z,22.73
2022-08-11T16:41:46.747Z,23.57
2022-08-11T16:44:37.887Z,22.77
2022-08-11T16:47:07.293Z,22.79
2022-08-11T16:49:47.202Z,23.33
2022-08-11T16:52:23.144Z,23.38
2022-08-11T16:54:52.758Z,23.32
2022-08-11T16:57:43.191Z,24.02
2022-08-11T17:00:14.908Z,24.47
2022-08-11T17:03:12.123Z,24.55
2022-08-11T17:06:03.864Z,24.60
2022-08-11T17:09:07.878Z,24.68
2022-08-11T17:12:10.265Z,25.03
2022-08-11T17:14:50.624Z,25.59
2022-08-11T17:17:26.851Z,26.10
2022-08-11T17:20:41.702Z,26.01
2022-08-11T17:23:05.351Z,25.38
2022-08-11T17:26:03.525Z,25.80
2022-08-11T17:28:24.483Z,26.01
2022-08-11T17:31:19.961Z,26.19
2022-08-11T17:34:10.154Z,26.53
2022-08-11T17:36:41.656Z,27.76
2022-08-11T17:39:12.869Z,29.35
2022-08-11T17:41:59.364Z,29.48
2022-08-11T17:44:46.530Z,29.56
2022-08-11T17:47:33.552Z,29.76
2022-08-11T17:50:10.609Z,29.46
2022-08-11T17:53:05.834Z,29.55
2022-08-11T17:55:54.540Z,30.32
2022-08-11T17:58:42.289Z,30.64
2022-08-11T18:01:11.349Z,31.21
2022-08-11T18:03:41.019Z,31.35
2022-08-11T18:06:12.882Z,31.87
2022-08-11T18:09:03.369Z,31.42
2022-08-11T18:12:11.101Z,30.98
2022-08-11T18:14:58.377Z,31.80
2022-08-11T18:17:44.790Z,31.20
2022-08-11T18:20:31.132Z,31.62
2022-08-11T18:23:20.886Z,31.79
2022-08-11T18:26:28.203Z,30.99
2022-08-11T18:29:16.353Z,32.26
2022-08-11T18:32:07.108Z,32.82
2022-08-11T18:34:56.972Z,32.45
2022-08-11T18:37:46.363Z,32.33
2022-08-11T18:40:38.562Z,32.17
2022-08-11T18:43:28.941Z,32.38
2022-08-11T18:46:27.436Z,32.80
2022-08-11T18:50:01.646Z,32.16
2022-08-11T18:52:36.783Z,32.78
2022-08-11T18:55:27.032Z,32.72
2022-08-11T18:58:13.634Z,32.64
2022-08-11T19:01:01.106Z,32.16
2022-08-11T19:03:49.460Z,32.25
2022-08-11T19:06:40.938Z,31.97
2022-08-11T19:09:36.259Z,32.63
2022-08-11T19:12:27.189Z,32.47
2022-08-11T19:15:13.559Z,32.65
2022-08-11T19:18:01.441Z,32.47
2022-08-11T19:20:49.972Z,32.68
2022-08-11T19:23:46.997Z,32.43
2022-08-11T19:26:34.137Z,32.11
2022-08-11T19:30:07.160Z,32.32
2022-08-11T19:32:27.977Z,32.07
2022-08-11T19:35:20.409Z,32.07
2022-08-11T19:38:08.187Z,32.46
2022-08-11T19:40:56.585Z,32.60
2022-08-11T19:43:44.082Z,32.77
2022-08-11T19:46:30.935Z,32.97
2022-08-11T19:49:17.656Z,33.51
2022-08-11T19:52:04.657Z,33.11
2022-08-11T19:54:57.645Z,33.34
2022-08-11T19:57:44.786Z,33.76
2022-08-11T20:00:34.687Z,33.62
2022-08-11T20:03:23.842Z,33.80
2022-08-11T20:06:10.431Z,36.45
2022-08-11T20:09:00.401Z,34.60
2022-08-11T20:11:52.557Z,34.26
2022-08-11T20:14:40.038Z,35.08
2022-08-11T20:17:26.708Z,35.70
2022-08-11T20:20:13.102Z,34.56
2022-08-11T20:22:59.530Z,34.46
2022-08-11T20:25:46.786Z,35.75
2022-08-11T20:28:33.322Z,35.69
2022-08-11T20:31:21.164Z,35.24
2022-08-11T20:34:07.261Z,35.78
2022-08-11T20:36:56.393Z,34.99
2022-08-11T20:39:43.422Z,34.86
2022-08-11T20:42:31.109Z,35.85
2022-08-11T20:45:23.402Z,34.73
2022-08-11T20:48:15.130Z,35.50
2022-08-11T20:51:06.359Z,35.44
2022-08-11T20:57:12.618Z,34.96
2022-08-11T20:59:59.858Z,35.64
2022-08-11T21:02:46.137Z,36.17
2022-08-11T21:06:09.604Z,35.86
2022-08-11T21:08:49.868Z,36.34
2022-08-11T21:11:36.858Z,36.70
2022-08-11T21:14:27.025Z,36.20
2022-08-11T21:18:00.826Z,36.19
2022-08-11T21:20:22.894Z,36.34
2022-08-11T21:23:13.112Z,36.69
2022-08-11T21:26:15.308Z,37.04
2022-08-11T21:29:02.817Z,37.36
2022-08-11T21:31:50.906Z,37.42
2022-08-11T21:34:40.380Z,37.94
2022-08-11T21:37:27.133Z,37.99
2022-08-11T21:40:17.019Z,37.77
2022-08-11T21:43:06.902Z,38.22
2022-08-11T21:45:55.784Z,38.19
2022-08-11T21:48:44.945Z,38.14
2022-08-11T21:51:31.330Z,38.11
2022-08-11T21:54:19.110Z,38.37
2022-08-11T21:57:06.445Z,38.46
2022-08-11T22:00:10.236Z,37.94
2022-08-11T22:03:01.893Z,37.26
2022-08-11T22:05:52.134Z,37.78
2022-08-11T22:08:38.306Z,38.01
2022-08-11T22:11:32.004Z,38.20
2022-08-11T22:14:20.056Z,38.06
2022-08-11T22:17:06.465Z,38.61
2022-08-11T22:19:53.520Z,38.33
2022-08-11T22:22:53.017Z,38.36
2022-08-11T22:25:49.903Z,38.74
2022-08-11T22:28:38.616Z,37.95
2022-08-11T22:31:25.611Z,38.50
2022-08-11T22:34:12.051Z,38.23
2022-08-11T22:37:00.014Z,38.16
2022-08-11T22:39:59.582Z,38.69
2022-08-11T22:42:52.362Z,37.94
2022-08-11T22:45:39.552Z,38.04
2022-08-11T22:48:26.648Z,38.09
2022-08-11T22:51:14.543Z,38.05
2022-08-11T22:54:01.848Z,39.33
2022-08-11T22:56:49.646Z,38.17
2022-08-11T22:59:37.217Z,38.44
2022-08-11T23:02:25.243Z,38.52
2022-08-11T23:05:11.840Z,38.17
2022-08-11T23:07:58.144Z,39.00
2022-08-11T23:10:44.741Z,38.82
2022-08-11T23:13:32.190Z,38.97
2022-08-11T23:16:19.291Z,38.64
2022-08-11T23:19:05.741Z,38.41
2022-08-11T23:21:52.612Z,38.80
2022-08-11T23:24:40.282Z,39.00
2022-08-11T23:27:32.014Z,38.44
2022-08-11T23:30:25.414Z,38.19
2022-08-11T23:33:14.236Z,38.84
2022-08-11T23:36:05.413Z,38.86
2022-08-11T23:38:51.506Z,38.99
2022-08-11T23:41:38.559Z,38.80
2022-08-11T23:44:25.683Z,39.29
2022-08-11T23:47:18.189Z,39.09
2022-08-11T23:50:06.572Z,39.52
2022-08-11T23:52:53.811Z,39.19
2022-08-11T23:55:40.203Z,39.36
2022-08-11T23:58:26.939Z,39.97
